createdAt,value
2022-12-04T00:02:20.997Z,14.26
2022-12-04T00:04:48.145Z,14.28
2022-12-04T00:07:16.735Z,14.20
2022-12-04T00:09:43.371Z,14.14
2022-12-04T00:12:10.387Z,14.07
2022-12-04T00:15:23.526Z,14.01
2022-12-04T00:17:34.335Z,13.94
2022-12-04T00:20:02.385Z,13.88
2022-12-04T00:22:34.167Z,13.82
2022-12-04T00:25:05.832Z,13.75
2022-12-04T00:27:34.786Z,13.68
2022-12-04T00:30:02.042Z,13.63
2022-12-04T00:32:33.410Z,13.58
2022-12-04T00:35:04.919Z,13.51
2022-12-04T00:37:35.243Z,13.44
2022-12-04T00:40:02.910Z,13.38
2022-12-04T00:42:30.079Z,13.33
2022-12-04T00:44:58.125Z,13.28
2022-12-04T00:47:25.786Z,13.23
2022-12-04T00:49:53.385Z,13.18
2022-12-04T00:52:20.412Z,13.14
2022-12-04T00:54:47.054Z,13.08
2022-12-04T00:57:19.083Z,13.03
2022-12-04T00:59:45.395Z,12.98
2022-12-04T01:02:13.006Z,12.94
2022-12-04T01:04:40.268Z,12.91
2022-12-04T01:07:07.347Z,12.85
2022-12-04T01:09:34.190Z,12.81
2022-12-04T01:12:07.137Z,12.77
2022-12-04T01:14:34.776Z,12.72
2022-12-04T01:17:02.589Z,12.69
2022-12-04T01:19:29.791Z,12.65
2022-12-04T01:22:02.133Z,12.60
2022-12-04T01:24:30.353Z,12.57
2022-12-04T01:26:58.012Z,12.52
2022-12-04T01:29:29.050Z,12.48
2022-12-04T01:31:58.617Z,12.44
2022-12-04T01:34:26.171Z,12.40
2022-12-04T01:36:53.746Z,12.36
2022-12-04T01:39:20.996Z,12.32
2022-12-04T01:41:49.159Z,12.27
2022-12-04T01:44:17.265Z,12.23
2022-12-04T01:46:45.147Z,12.20
2022-12-04T01:49:14.999Z,12.16
2022-12-04T01:51:42.942Z,12.12
2022-12-04T01:54:10.955Z,12.09
2022-12-04T01:56:39.530Z,12.05
2022-12-04T01:59:10.133Z,12.00
2022-12-04T02:01:36.582Z,11.96
2022-12-04T02:04:03.001Z,11.94
2022-12-04T02:06:29.269Z,11.90
2022-12-04T02:08:55.553Z,11.88
2022-12-04T02:11:22.015Z,11.84
2022-12-04T02:13:48.419Z,11.80
2022-12-04T02:16:15.491Z,11.77
2022-12-04T02:18:41.848Z,11.73
2022-12-04T02:21:08.316Z,11.69
2022-12-04T02:23:34.618Z,11.66
2022-12-04T02:26:01.800Z,11.64
2022-12-04T02:28:28.132Z,11.60
2022-12-04T02:30:54.514Z,11.58
2022-12-04T02:33:21.425Z,11.56
2022-12-04T02:35:47.702Z,11.53
2022-12-04T02:38:14.924Z,11.49
2022-12-04T02:40:41.188Z,11.47
2022-12-04T02:43:07.504Z,11.43
2022-12-04T02:45:33.883Z,11.42
2022-12-04T02:48:00.504Z,11.38
2022-12-04T02:50:27.460Z,11.35
2022-12-04T02:52:54.312Z,11.32
2022-12-04T02:55:21.494Z,11.29
2022-12-04T02:57:47.856Z,11.27
2022-12-04T03:00:17.759Z,11.24
2022-12-04T03:02:45.235Z,11.22
2022-12-04T03:05:12.466Z,11.20
2022-12-04T03:07:39.359Z,11.16
2022-12-04T03:10:06.483Z,11.14
2022-12-04T03:12:32.722Z,11.11
2022-12-04T03:14:59.050Z,11.08
2022-12-04T03:17:25.593Z,11.05
2022-12-04T03:19:52.061Z,11.03
2022-12-04T03:22:18.603Z,11.01
2022-12-04T03:24:44.896Z,11.00
2022-12-04T03:27:11.192Z,10.97
2022-12-04T03:29:37.637Z,10.95
2022-12-04T03:32:03.919Z,10.92
2022-12-04T03:34:30.288Z,10.92
2022-12-04T03:36:56.567Z,10.90
2022-12-04T03:39:22.936Z,10.87
2022-12-04T03:41:50.021Z,10.86
2022-12-04T03:44:16.573Z,10.85
2022-12-04T03:46:42.858Z,10.81
2022-12-04T03:49:09.207Z,10.79
2022-12-04T03:51:35.537Z,10.66
2022-12-04T03:54:01.817Z,10.73
2022-12-04T03:56:28.170Z,10.71
2022-12-04T03:58:55.555Z,10.70
2022-12-04T04:01:21.989Z,10.67
2022-12-04T04:03:48.281Z,10.65
2022-12-04T04:06:15.390Z,10.63
2022-12-04T04:08:42.343Z,10.61
2022-12-04T04:11:09.559Z,10.58
2022-12-04T04:13:35.744Z,10.56
2022-12-04T04:16:02.125Z,10.54
2022-12-04T04:18:28.462Z,10.53
2022-12-04T04:20:54.817Z,10.51
2022-12-04T04:23:21.646Z,10.48
2022-12-04T04:25:48.033Z,10.48
2022-12-04T04:28:14.355Z,10.46
2022-12-04T04:30:40.682Z,10.45
2022-12-04T04:33:06.977Z,10.43
2022-12-04T04:38:19.212Z,10.39
2022-12-04T04:40:46.091Z,10.39
2022-12-04T04:43:12.357Z,10.38
2022-12-04T04:45:39.077Z,10.36
2022-12-04T04:48:05.416Z,10.35
2022-12-04T04:50:31.786Z,10.34
2022-12-04T04:52:59.080Z,10.33
2022-12-04T04:55:25.638Z,10.32
2022-12-04T04:57:52.612Z,10.31
2022-12-04T05:00:19.460Z,10.30
2022-12-04T05:02:45.890Z,10.29
2022-12-04T05:05:12.465Z,10.29
2022-12-04T05:07:38.822Z,10.27
2022-12-04T05:10:05.635Z,10.25
2022-12-04T05:12:31.950Z,10.09
2022-12-04T05:14:58.655Z,10.24
2022-12-04T05:17:24.961Z,10.23
2022-12-04T05:19:51.641Z,10.21
2022-12-04T05:22:17.934Z,10.20
2022-12-04T05:24:45.011Z,10.18
2022-12-04T05:27:11.358Z,10.16
2022-12-04T05:29:37.644Z,10.15
2022-12-04T05:32:04.183Z,10.14
2022-12-04T05:34:30.590Z,10.13
2022-12-04T05:36:57.560Z,10.12
2022-12-04T05:39:23.938Z,10.10
2022-12-04T05:41:50.207Z,10.08
2022-12-04T05:44:16.504Z,10.08
2022-12-04T05:46:42.865Z,10.06
2022-12-04T05:49:09.193Z,10.05
2022-12-04T05:51:35.642Z,10.05
2022-12-04T05:54:02.181Z,10.04
2022-12-04T05:56:28.658Z,10.02
2022-12-04T05:58:54.962Z,10.02
2022-12-04T06:01:21.535Z,10.02
2022-12-04T06:03:47.918Z,10.00
2022-12-04T06:06:21.132Z,9.99
2022-12-04T06:08:49.030Z,9.99
2022-12-04T06:11:15.291Z,9.98
2022-12-04T06:13:41.577Z,9.96
2022-12-04T06:16:07.952Z,9.96
2022-12-04T06:18:34.399Z,9.95
2022-12-04T06:21:00.702Z,9.93
2022-12-04T06:23:27.242Z,9.92
2022-12-04T06:25:53.548Z,9.90
2022-12-04T06:28:19.821Z,9.91
2022-12-04T06:30:46.146Z,9.90
2022-12-04T06:33:16.604Z,9.89
2022-12-04T06:35:43.031Z,9.87
2022-12-04T06:38:09.310Z,9.85
2022-12-04T06:40:35.594Z,9.85
2022-12-04T06:43:02.110Z,9.83
2022-12-04T06:45:28.516Z,9.83
2022-12-04T06:47:55.052Z,9.83
2022-12-04T06:50:21.353Z,9.82
2022-12-04T06:52:48.190Z,9.81
2022-12-04T06:55:17.496Z,9.80
2022-12-04T06:57:43.784Z,9.79
2022-12-04T07:00:15.626Z,9.79
2022-12-04T07:02:41.978Z,9.79
2022-12-04T07:05:08.326Z,9.79
2022-12-04T07:07:35.033Z,9.79
2022-12-04T07:10:01.406Z,9.79
2022-12-04T07:12:27.842Z,9.78
2022-12-04T07:14:54.210Z,9.76
2022-12-04T07:17:20.486Z,9.75
2022-12-04T07:19:46.813Z,9.75
2022-12-04T07:22:13.131Z,9.74
2022-12-04T07:24:39.457Z,9.73
2022-12-04T07:27:05.720Z,9.72
2022-12-04T07:29:31.982Z,9.71
2022-12-04T07:31:58.911Z,9.71
2022-12-04T07:34:25.201Z,9.70
2022-12-04T07:36:51.747Z,9.70
2022-12-04T07:39:18.045Z,9.69
2022-12-04T07:41:45.436Z,9.67
2022-12-04T07:44:11.745Z,9.66
2022-12-04T07:46:39.277Z,9.64
2022-12-04T07:49:05.527Z,9.65
2022-12-04T07:51:31.838Z,9.65
2022-12-04T07:54:03.281Z,9.64
2022-12-04T07:56:30.333Z,9.64
2022-12-04T07:58:56.588Z,9.63
2022-12-04T08:01:23.276Z,9.62
2022-12-04T08:03:50.135Z,9.61
2022-12-04T08:06:17.250Z,9.59
2022-12-04T08:08:44.667Z,9.59
2022-12-04T08:11:10.975Z,9.67
2022-12-04T08:13:37.379Z,10.04
2022-12-04T08:16:04.601Z,10.42
2022-12-04T08:18:30.964Z,10.78
2022-12-04T08:20:57.293Z,11.10
2022-12-04T08:23:23.574Z,11.37
2022-12-04T08:25:50.194Z,11.58
2022-12-04T08:28:16.463Z,11.76
2022-12-04T08:30:43.020Z,11.91
2022-12-04T08:33:09.350Z,12.05
2022-12-04T08:35:35.968Z,12.24
2022-12-04T08:38:02.216Z,12.40
2022-12-04T08:40:29.077Z,12.56
2022-12-04T08:42:55.375Z,12.71
2022-12-04T08:45:21.810Z,12.93
2022-12-04T08:47:52.269Z,13.15
2022-12-04T08:50:19.052Z,13.38
2022-12-04T08:52:45.370Z,13.60
2022-12-04T08:55:12.144Z,13.75
2022-12-04T08:57:39.084Z,13.93
2022-12-04T09:00:08.179Z,14.10
2022-12-04T09:02:34.485Z,14.25
2022-12-04T09:05:01.030Z,14.40
2022-12-04T09:07:27.361Z,14.53
2022-12-04T09:09:53.685Z,14.65
2022-12-04T09:12:20.705Z,14.77
2022-12-04T09:14:47.025Z,14.89
2022-12-04T09:17:13.280Z,15.01
2022-12-04T09:22:51.432Z,15.29
2022-12-04T09:25:17.612Z,15.39
2022-12-04T09:27:46.918Z,15.49
2022-12-04T09:30:13.326Z,15.58
2022-12-04T09:32:40.146Z,15.69
2022-12-04T09:35:07.104Z,15.81
2022-12-04T09:37:33.889Z,15.88
2022-12-04T09:40:00.601Z,15.98
2022-12-04T09:42:26.866Z,16.06
2022-12-04T09:44:53.172Z,16.17
2022-12-04T09:47:19.415Z,16.25
2022-12-04T09:49:45.799Z,16.35
2022-12-04T09:52:16.237Z,16.43
2022-12-04T09:54:46.679Z,16.48
2022-12-04T09:57:13.622Z,16.57
2022-12-04T09:59:39.891Z,16.67
2022-12-04T10:02:06.643Z,16.72
2022-12-04T10:04:34.831Z,16.79
2022-12-04T10:07:01.179Z,16.88
2022-12-04T10:09:27.580Z,16.96
2022-12-04T10:11:54.156Z,17.01
2022-12-04T10:14:20.427Z,17.07
2022-12-04T10:16:47.094Z,17.14
2022-12-04T10:19:14.513Z,17.19
2022-12-04T10:21:40.955Z,17.27
2022-12-04T10:24:07.504Z,17.33
2022-12-04T10:26:33.798Z,17.38
2022-12-04T10:29:00.052Z,17.46
2022-12-04T10:31:26.389Z,17.52
2022-12-04T10:33:53.600Z,17.55
2022-12-04T10:36:19.850Z,17.56
2022-12-04T10:38:46.213Z,17.53
2022-12-04T10:41:15.078Z,17.49
2022-12-04T10:43:41.758Z,17.48
2022-12-04T10:46:08.131Z,17.51
2022-12-04T10:48:34.482Z,17.53
2022-12-04T10:51:01.258Z,17.61
2022-12-04T10:53:28.144Z,17.68
2022-12-04T10:55:54.394Z,17.76
2022-12-04T10:58:21.219Z,17.82
2022-12-04T11:00:47.509Z,17.85
2022-12-04T11:03:13.781Z,17.91
2022-12-04T11:05:40.135Z,17.95
2022-12-04T11:08:07.099Z,18.01
2022-12-04T11:10:34.186Z,18.07
2022-12-04T11:13:01.214Z,18.11
2022-12-04T11:15:28.160Z,18.15
2022-12-04T11:17:54.445Z,18.18
2022-12-04T11:20:26.705Z,18.22
2022-12-04T11:22:53.002Z,18.25
2022-12-04T11:25:19.251Z,18.29
2022-12-04T11:27:45.541Z,18.35
2022-12-04T11:30:11.817Z,18.40
2022-12-04T11:32:38.889Z,18.43
2022-12-04T11:35:05.306Z,18.45
2022-12-04T11:37:32.244Z,18.50
2022-12-04T11:39:58.732Z,18.57
2022-12-04T11:42:25.203Z,18.62
2022-12-04T11:44:51.520Z,18.66
2022-12-04T11:47:18.018Z,18.71
2022-12-04T11:49:44.318Z,18.77
2022-12-04T11:52:10.569Z,18.81
2022-12-04T11:54:36.853Z,18.81
2022-12-04T11:57:03.571Z,18.84
2022-12-04T11:59:29.980Z,18.85
2022-12-04T12:01:58.514Z,18.91
2022-12-04T12:04:25.219Z,18.92
2022-12-04T12:06:51.572Z,18.92
2022-12-04T12:09:18.084Z,18.91
2022-12-04T12:11:45.232Z,18.86
2022-12-04T12:14:14.694Z,18.80
2022-12-04T12:16:41.672Z,18.77
2022-12-04T12:19:08.121Z,18.76
2022-12-04T12:21:34.522Z,18.80
2022-12-04T12:24:00.800Z,18.83
2022-12-04T12:26:27.620Z,18.87
2022-12-04T12:28:53.971Z,18.93
2022-12-04T12:31:20.293Z,18.99
2022-12-04T12:33:46.607Z,19.05
2022-12-04T12:36:13.645Z,19.08
2022-12-04T12:38:39.908Z,19.11
2022-12-04T12:41:06.205Z,19.14
2022-12-04T12:43:32.959Z,19.17
2022-12-04T12:45:59.274Z,19.20
2022-12-04T12:48:26.027Z,19.26
2022-12-04T12:51:08.875Z,19.28
2022-12-04T12:53:38.611Z,19.31
2022-12-04T12:56:05.707Z,19.35
2022-12-04T12:58:32.387Z,19.36
2022-12-04T13:00:58.712Z,19.37
2022-12-04T13:03:25.971Z,19.39
2022-12-04T13:05:52.300Z,19.40
2022-12-04T13:08:18.759Z,19.44
2022-12-04T13:10:45.556Z,19.45
2022-12-04T13:13:12.161Z,19.48
2022-12-04T13:15:38.467Z,19.50
2022-12-04T13:18:04.715Z,19.53
2022-12-04T13:20:31.069Z,19.56
2022-12-04T13:22:57.258Z,19.58
2022-12-04T13:25:23.586Z,19.61
2022-12-04T13:27:49.992Z,19.63
2022-12-04T13:30:17.179Z,19.66
2022-12-04T13:32:43.451Z,19.69
2022-12-04T13:35:09.737Z,19.71
2022-12-04T13:37:37.017Z,19.73
2022-12-04T13:40:03.362Z,19.74
2022-12-04T13:42:29.698Z,19.77
2022-12-04T13:44:56.610Z,19.79
2022-12-04T13:47:23.141Z,19.81
2022-12-04T13:49:49.419Z,19.84
2022-12-04T13:52:15.802Z,19.84
2022-12-04T13:54:43.068Z,19.84
2022-12-04T13:57:10.167Z,19.83
2022-12-04T13:59:36.517Z,19.85
2022-12-04T14:02:08.016Z,19.87
2022-12-04T14:04:34.813Z,19.87
2022-12-04T14:07:01.109Z,19.89
2022-12-04T14:09:27.466Z,19.91
2022-12-04T14:11:54.429Z,19.92
2022-12-04T14:14:21.367Z,19.92
2022-12-04T14:16:47.738Z,19.92
2022-12-04T14:19:14.113Z,19.93
2022-12-04T14:21:40.401Z,19.94
2022-12-04T14:24:06.654Z,19.95
2022-12-04T14:27:03.188Z,19.94
2022-12-04T14:29:19.317Z,19.95
2022-12-04T14:31:45.609Z,19.94
2022-12-04T14:34:12.453Z,19.95
2022-12-04T14:36:38.713Z,19.96
2022-12-04T14:39:05.309Z,19.96
2022-12-04T14:41:31.590Z,19.99
2022-12-04T14:43:58.338Z,19.97
2022-12-04T14:46:24.686Z,19.97
2022-12-04T14:48:51.394Z,19.99
2022-12-04T14:51:19.224Z,20.00
2022-12-04T14:53:45.486Z,20.01
2022-12-04T14:56:11.831Z,19.98
2022-12-04T14:58:38.665Z,19.96
2022-12-04T15:01:04.970Z,19.91
2022-12-04T15:03:31.492Z,19.86
2022-12-04T15:05:57.856Z,19.84
2022-12-04T15:08:24.204Z,19.84
2022-12-04T15:10:51.295Z,19.85
2022-12-04T15:13:21.555Z,19.87
2022-12-04T15:15:48.111Z,19.89
2022-12-04T15:18:15.273Z,19.94
2022-12-04T15:20:42.361Z,19.94
2022-12-04T15:23:09.199Z,19.96
2022-12-04T15:25:35.488Z,19.97
2022-12-04T15:28:01.776Z,20.00
2022-12-04T15:30:28.063Z,20.02
2022-12-04T15:32:54.325Z,20.04
2022-12-04T15:35:20.643Z,20.05
2022-12-04T15:37:46.915Z,20.07
2022-12-04T15:40:13.438Z,20.08
2022-12-04T15:42:39.753Z,20.10
2022-12-04T15:45:06.545Z,20.11
2022-12-04T15:47:33.076Z,20.13
2022-12-04T15:49:59.373Z,20.14
2022-12-04T15:52:25.846Z,20.17
2022-12-04T15:54:52.152Z,20.17
2022-12-04T15:57:18.556Z,20.17
2022-12-04T15:59:45.359Z,20.20
2022-12-04T16:02:11.773Z,20.22
2022-12-04T16:04:44.007Z,20.20
2022-12-04T16:07:11.699Z,20.21
2022-12-04T16:09:38.026Z,20.23
2022-12-04T16:12:04.404Z,20.26
2022-12-04T16:14:30.734Z,20.26
2022-12-04T16:17:01.215Z,20.26
2022-12-04T16:19:31.206Z,20.29
2022-12-04T16:21:57.484Z,20.31
2022-12-04T16:24:23.997Z,20.32
2022-12-04T16:26:50.316Z,20.32
2022-12-04T16:29:16.821Z,20.35
2022-12-04T16:31:43.388Z,20.38
2022-12-04T16:34:09.736Z,20.39
2022-12-04T16:36:36.052Z,20.41
2022-12-04T16:39:02.372Z,20.44
2022-12-04T16:41:28.948Z,20.46
2022-12-04T16:43:55.190Z,20.49
2022-12-04T16:46:22.382Z,20.51
2022-12-04T16:48:48.758Z,20.53
2022-12-04T16:51:15.323Z,20.54
2022-12-04T16:53:41.584Z,20.56
2022-12-04T16:56:08.388Z,20.57
2022-12-04T16:58:34.686Z,20.59
2022-12-04T17:01:01.416Z,20.62
2022-12-04T17:03:28.760Z,20.64
2022-12-04T17:05:55.010Z,20.64
2022-12-04T17:08:21.531Z,20.65
2022-12-04T17:10:47.826Z,20.68
2022-12-04T17:13:14.256Z,20.69
2022-12-04T17:15:40.711Z,20.72
2022-12-04T17:18:11.990Z,20.71
2022-12-04T17:20:40.405Z,20.74
2022-12-04T17:23:06.809Z,20.74
2022-12-04T17:25:33.097Z,20.75
2022-12-04T17:27:59.353Z,20.73
2022-12-04T17:30:29.051Z,20.69
2022-12-04T17:32:58.475Z,20.66
2022-12-04T17:35:24.780Z,20.61
2022-12-04T17:37:51.075Z,20.58
2022-12-04T17:40:17.323Z,20.58
2022-12-04T17:42:43.561Z,20.58
2022-12-04T17:45:09.868Z,20.61
2022-12-04T17:47:36.912Z,20.62
2022-12-04T17:52:54.490Z,20.65
2022-12-04T17:55:20.926Z,20.66
2022-12-04T17:57:47.634Z,20.67
2022-12-04T18:00:14.138Z,20.71
2022-12-04T18:02:40.483Z,20.71
2022-12-04T18:05:08.070Z,20.72
2022-12-04T18:07:34.398Z,20.73
2022-12-04T18:10:01.305Z,20.74
2022-12-04T18:12:27.637Z,20.75
2022-12-04T18:14:53.998Z,20.76
2022-12-04T18:17:20.510Z,20.78
2022-12-04T18:19:47.876Z,20.80
2022-12-04T18:22:15.451Z,20.81
2022-12-04T18:24:43.523Z,20.84
2022-12-04T18:27:09.807Z,20.86
2022-12-04T18:29:36.340Z,20.88
2022-12-04T18:32:02.731Z,20.90
2022-12-04T18:34:29.086Z,20.91
2022-12-04T18:36:55.785Z,20.94
2022-12-04T18:39:22.150Z,20.96
2022-12-04T18:41:48.777Z,20.98
2022-12-04T18:44:15.809Z,20.99
2022-12-04T18:46:42.103Z,21.03
2022-12-04T18:49:08.380Z,21.06
2022-12-04T18:51:35.378Z,21.10
2022-12-04T18:54:01.782Z,21.11
2022-12-04T18:56:28.779Z,21.14
2022-12-04T18:58:55.021Z,21.17
2022-12-04T19:01:21.422Z,21.19
2022-12-04T19:03:47.757Z,21.21
2022-12-04T19:06:14.191Z,21.20
2022-12-04T19:08:43.260Z,21.19
2022-12-04T19:11:11.376Z,21.16
2022-12-04T19:13:37.709Z,21.10
2022-12-04T19:16:04.058Z,21.06
2022-12-04T19:18:30.452Z,20.99
2022-12-04T19:21:01.507Z,20.91
2022-12-04T19:23:27.948Z,20.82
2022-12-04T19:25:54.577Z,20.71
2022-12-04T19:28:27.175Z,20.59
2022-12-04T19:30:54.211Z,20.49
2022-12-04T19:33:22.411Z,20.40
2022-12-04T19:35:51.755Z,20.29
2022-12-04T19:38:18.951Z,20.20
2022-12-04T19:40:45.611Z,20.11
2022-12-04T19:43:13.264Z,20.08
2022-12-04T19:45:40.012Z,20.07
2022-12-04T19:48:07.386Z,20.06
2022-12-04T19:50:34.508Z,20.06
2022-12-04T19:53:03.867Z,20.08
2022-12-04T19:55:31.973Z,20.03
2022-12-04T19:58:00.117Z,20.24
2022-12-04T20:00:26.961Z,20.30
2022-12-04T20:03:01.781Z,20.35
2022-12-04T20:05:28.752Z,20.40
2022-12-04T20:10:23.720Z,20.53
2022-12-04T20:12:50.473Z,20.57
2022-12-04T20:15:17.333Z,20.60
2022-12-04T20:17:44.728Z,20.66
2022-12-04T20:20:13.929Z,20.71
2022-12-04T20:22:41.911Z,20.74
2022-12-04T20:25:08.623Z,20.78
2022-12-04T20:27:35.305Z,20.83
2022-12-04T20:30:08.354Z,20.86
2022-12-04T20:32:36.348Z,20.89
2022-12-04T20:35:03.483Z,20.89
2022-12-04T20:37:30.576Z,20.88
2022-12-04T20:39:58.834Z,20.84
2022-12-04T20:42:33.327Z,20.79
2022-12-04T20:45:00.513Z,20.72
2022-12-04T20:47:28.876Z,20.67
2022-12-04T20:49:56.976Z,20.61
2022-12-04T20:52:26.584Z,20.53
2022-12-04T20:54:54.151Z,20.45
2022-12-04T20:57:21.056Z,20.36
2022-12-04T20:59:48.153Z,20.29
2022-12-04T21:02:15.520Z,20.21
2022-12-04T21:04:42.195Z,20.12
2022-12-04T21:07:09.090Z,20.02
2022-12-04T21:09:36.039Z,19.96
2022-12-04T21:12:03.009Z,19.92
2022-12-04T21:14:30.273Z,19.87
2022-12-04T21:16:57.227Z,19.80
2022-12-04T21:19:25.086Z,19.73
2022-12-04T21:21:52.198Z,19.65
2022-12-04T21:24:21.951Z,19.57
2022-12-04T21:26:48.447Z,19.53
2022-12-04T21:29:15.165Z,19.49
2022-12-04T21:31:43.402Z,19.45
2022-12-04T21:34:12.790Z,19.45
2022-12-04T21:36:40.289Z,19.47
2022-12-04T21:39:07.422Z,19.49
2022-12-04T21:41:37.866Z,19.53
2022-12-04T21:44:06.681Z,19.58
2022-12-04T21:49:27.761Z,19.67
2022-12-04T21:51:57.653Z,19.72
2022-12-04T21:54:24.638Z,19.76
2022-12-04T21:56:52.330Z,19.79
2022-12-04T21:59:25.470Z,19.84
2022-12-04T22:01:52.928Z,19.88
2022-12-04T22:04:23.028Z,19.89
2022-12-04T22:06:50.504Z,19.92
2022-12-04T22:09:19.662Z,19.97
2022-12-04T22:11:46.380Z,19.99
2022-12-04T22:14:12.955Z,20.01
2022-12-04T22:16:42.800Z,20.05
2022-12-04T22:19:10.161Z,20.06
2022-12-04T22:21:38.311Z,20.06
2022-12-04T22:24:05.508Z,20.10
2022-12-04T22:26:39.504Z,20.13
2022-12-04T22:29:34.100Z,20.15
2022-12-04T22:31:55.480Z,20.14
2022-12-04T22:34:22.314Z,20.13
2022-12-04T22:37:03.062Z,20.10
2022-12-04T22:39:35.203Z,20.06
2022-12-04T22:42:14.774Z,19.97
2022-12-04T22:44:42.657Z,19.84
2022-12-04T22:47:13.854Z,19.71
2022-12-04T22:49:45.839Z,19.59
2022-12-04T22:52:12.753Z,19.46
2022-12-04T22:54:44.937Z,19.35
2022-12-04T22:57:19.180Z,19.26
2022-12-04T22:59:51.428Z,19.15
2022-12-04T23:05:13.461Z,18.89
2022-12-04T23:07:41.474Z,18.76
2022-12-04T23:10:18.105Z,18.64
2022-12-04T23:12:50.364Z,18.51
2022-12-04T23:15:20.500Z,18.39
2022-12-04T23:17:58.353Z,18.28
2022-12-04T23:20:42.697Z,18.16
2022-12-04T23:23:10.500Z,18.07
2022-12-04T23:25:55.182Z,17.96
2022-12-04T23:28:26.053Z,17.86
2022-12-04T23:30:53.260Z,17.75
2022-12-04T23:33:23.624Z,17.66
2022-12-04T23:35:53.302Z,17.57
2022-12-04T23:44:15.306Z,17.26
2022-12-04T23:46:43.168Z,17.17
2022-12-04T23:49:20.407Z,17.07
2022-12-04T23:51:49.437Z,16.98
2022-12-04T23:54:19.947Z,16.90
2022-12-04T23:56:48.950Z,16.82
2022-12-04T23:59:16.526Z,16.72
